createdAt,value
2022-11-23T00:00:10.343Z,27.53
2022-11-23T00:02:39.542Z,29.47
2022-11-23T00:05:09.014Z,32.17
2022-11-23T00:07:37.535Z,30.70
2022-11-23T00:10:09.079Z,31.30
2022-11-23T00:12:37.489Z,30.00
2022-11-23T00:15:07.544Z,29.50
2022-11-23T00:17:36.708Z,29.83
2022-11-23T00:20:06.363Z,30.37
2022-11-23T00:22:35.625Z,27.97
2022-11-23T00:25:04.786Z,31.20
2022-11-23T00:27:35.736Z,28.60
2022-11-23T00:30:05.133Z,31.40
2022-11-23T00:32:36.681Z,28.33
2022-11-23T00:35:09.229Z,32.17
2022-11-23T00:37:38.518Z,28.30
2022-11-23T00:40:08.841Z,30.13
2022-11-23T00:42:39.872Z,32.40
2022-11-23T00:45:09.715Z,28.60
2022-11-23T00:47:39.225Z,30.90
2022-11-23T00:50:08.004Z,30.57
2022-11-23T00:52:37.301Z,31.60
2022-11-23T00:55:06.246Z,32.97
2022-11-23T00:57:35.911Z,32.90
2022-11-23T01:00:09.572Z,29.77
2022-11-23T01:02:39.410Z,29.57
2022-11-23T01:05:08.173Z,30.57
2022-11-23T01:07:37.352Z,36.07
2022-11-23T01:10:06.285Z,33.80
2022-11-23T01:12:34.634Z,32.37
2022-11-23T01:15:03.821Z,28.73
2022-11-23T01:17:34.545Z,35.37
2022-11-23T01:20:03.602Z,34.07
2022-11-23T01:22:32.964Z,31.43
2022-11-23T01:25:01.533Z,35.60
2022-11-23T01:27:32.025Z,32.27
2022-11-23T01:30:00.615Z,30.80
2022-11-23T01:32:29.642Z,37.20
2022-11-23T01:35:00.348Z,30.77
2022-11-23T01:37:30.847Z,28.43
2022-11-23T01:39:59.582Z,26.80
2022-11-23T01:42:41.663Z,31.43
2022-11-23T01:45:35.467Z,29.50
2022-11-23T01:48:05.542Z,29.60
2022-11-23T01:50:36.057Z,36.30
2022-11-23T01:53:04.220Z,32.13
2022-11-23T01:55:32.675Z,29.20
2022-11-23T01:58:02.160Z,29.13
2022-11-23T02:00:31.340Z,27.20
2022-11-23T02:03:01.383Z,31.27
2022-11-23T02:05:34.001Z,29.80
2022-11-23T02:08:04.497Z,26.83
2022-11-23T02:10:35.490Z,28.77
2022-11-23T02:13:05.077Z,28.50
2022-11-23T02:15:38.595Z,28.40
2022-11-23T02:18:10.574Z,29.50
2022-11-23T02:20:40.312Z,24.47
2022-11-23T02:23:18.161Z,29.30
2022-11-23T02:25:59.715Z,26.57
2022-11-23T02:28:32.170Z,25.97
2022-11-23T02:31:21.963Z,25.07
2022-11-23T02:33:50.669Z,28.50
2022-11-23T02:36:36.031Z,24.97
2022-11-23T02:39:11.053Z,28.47
2022-11-23T02:41:47.518Z,27.80
2022-11-23T02:44:33.006Z,25.23
2022-11-23T02:47:02.420Z,30.50
2022-11-23T02:49:33.974Z,26.63
2022-11-23T02:52:03.390Z,24.97
2022-11-23T02:54:32.662Z,26.07
2022-11-23T02:57:03.039Z,27.67
2022-11-23T02:59:36.059Z,27.07
2022-11-23T03:02:06.055Z,27.37
2022-11-23T03:04:35.119Z,25.63
2022-11-23T03:07:03.817Z,30.57
2022-11-23T03:09:35.084Z,28.03
2022-11-23T03:12:07.431Z,26.23
2022-11-23T03:14:35.784Z,30.80
2022-11-23T03:17:06.718Z,29.63
2022-11-23T03:19:39.723Z,26.20
2022-11-23T03:22:09.440Z,27.60
2022-11-23T03:24:37.706Z,24.00
2022-11-23T03:27:09.949Z,28.57
2022-11-23T03:29:38.681Z,29.07
2022-11-23T03:32:16.273Z,29.03
2022-11-23T03:34:48.707Z,28.53
2022-11-23T03:37:19.281Z,28.80
2022-11-23T03:39:48.722Z,26.70
2022-11-23T03:42:40.816Z,28.17
2022-11-23T03:45:10.864Z,28.77
2022-11-23T03:47:40.360Z,28.70
2022-11-23T03:50:09.698Z,24.10
2022-11-23T03:52:39.982Z,32.00
2022-11-23T03:55:09.648Z,29.23
2022-11-23T03:57:40.519Z,26.57
2022-11-23T04:00:09.725Z,30.93
2022-11-23T04:02:42.662Z,27.87
2022-11-23T04:05:30.825Z,27.33
2022-11-23T04:08:21.160Z,25.00
2022-11-23T04:10:49.780Z,28.70
2022-11-23T04:13:26.035Z,24.13
2022-11-23T04:15:54.849Z,26.53
2022-11-23T04:18:22.852Z,26.30
2022-11-23T04:20:51.750Z,28.53
2022-11-23T04:23:21.736Z,23.90
2022-11-23T04:25:51.852Z,26.77
2022-11-23T04:28:22.048Z,25.90
2022-11-23T04:30:52.136Z,26.97
2022-11-23T04:33:20.866Z,27.90
2022-11-23T04:35:49.784Z,30.87
2022-11-23T04:38:17.841Z,29.50
2022-11-23T04:40:48.628Z,31.93
2022-11-23T04:43:18.366Z,28.93
2022-11-23T04:45:52.264Z,34.37
2022-11-23T04:48:27.929Z,33.03
2022-11-23T04:50:57.867Z,34.80
2022-11-23T04:53:34.311Z,37.63
2022-11-23T04:56:03.021Z,37.30
2022-11-23T04:58:37.516Z,36.90
2022-11-23T05:01:07.575Z,29.77
2022-11-23T05:03:45.007Z,31.97
2022-11-23T05:06:14.873Z,32.57
2022-11-23T05:08:46.962Z,28.20
2022-11-23T05:11:50.210Z,27.80
2022-11-23T05:14:18.830Z,32.73
2022-11-23T05:16:50.159Z,26.77
2022-11-23T05:19:18.826Z,29.70
2022-11-23T05:21:48.202Z,26.70
2022-11-23T05:24:17.129Z,27.43
2022-11-23T05:26:58.454Z,26.47
2022-11-23T05:29:26.834Z,26.17
2022-11-23T05:31:57.695Z,27.83
2022-11-23T05:34:25.865Z,28.70
2022-11-23T05:36:55.075Z,21.30
2022-11-23T05:39:25.001Z,25.07
2022-11-23T05:41:55.856Z,27.90
2022-11-23T05:44:33.023Z,27.93
2022-11-23T05:47:04.871Z,27.93
2022-11-23T05:49:35.899Z,23.50
2022-11-23T05:52:07.184Z,24.10
2022-11-23T05:54:37.859Z,22.60
2022-11-23T05:57:11.938Z,26.13
2022-11-23T05:59:43.938Z,22.83
2022-11-23T06:02:26.990Z,19.60
2022-11-23T06:05:16.167Z,19.53
2022-11-23T06:07:53.600Z,18.63
2022-11-23T06:10:26.922Z,21.97
2022-11-23T06:13:03.498Z,21.63
2022-11-23T06:15:33.183Z,20.00
2022-11-23T06:18:03.140Z,18.27
2022-11-23T06:20:43.885Z,21.97
2022-11-23T06:23:12.951Z,20.20
2022-11-23T06:25:41.918Z,20.03
2022-11-23T06:28:31.101Z,16.10
2022-11-23T06:31:03.432Z,20.33
2022-11-23T06:33:35.822Z,17.30
2022-11-23T06:36:07.783Z,14.77
2022-11-23T06:38:41.995Z,16.30
2022-11-23T06:41:17.931Z,14.30
2022-11-23T06:43:49.293Z,17.10
2022-11-23T06:46:28.386Z,15.20
2022-11-23T06:48:59.397Z,14.80
2022-11-23T06:51:27.942Z,15.80
2022-11-23T06:53:57.304Z,15.13
2022-11-23T06:56:26.891Z,16.17
2022-11-23T06:58:56.365Z,14.97
2022-11-23T07:01:29.241Z,18.60
2022-11-23T07:04:10.386Z,20.10
2022-11-23T07:06:47.034Z,19.63
2022-11-23T07:09:30.505Z,23.80
2022-11-23T07:12:20.017Z,23.27
2022-11-23T07:14:51.695Z,25.10
2022-11-23T07:17:20.042Z,25.93
2022-11-23T07:19:51.345Z,26.10
2022-11-23T07:22:19.990Z,21.17
2022-11-23T07:24:49.613Z,23.33
2022-11-23T07:27:20.481Z,21.80
2022-11-23T07:29:50.033Z,21.43
2022-11-23T07:32:19.077Z,17.43
2022-11-23T07:34:48.531Z,16.47
2022-11-23T07:37:19.463Z,18.20
2022-11-23T07:39:57.310Z,15.03
2022-11-23T07:42:34.454Z,14.30
2022-11-23T07:45:06.396Z,13.10
2022-11-23T07:47:35.080Z,13.73
2022-11-23T07:50:05.114Z,10.10
2022-11-23T07:52:36.070Z,10.30
2022-11-23T07:55:06.172Z,8.40
2022-11-23T07:57:34.970Z,9.10
2022-11-23T08:00:03.271Z,11.60
2022-11-23T08:03:19.466Z,15.40
2022-11-23T08:05:40.727Z,8.47
2022-11-23T08:08:10.155Z,10.17
2022-11-23T08:10:44.420Z,10.33
2022-11-23T08:13:16.011Z,8.90
2022-11-23T08:15:50.178Z,10.03
2022-11-23T08:18:22.093Z,8.07
2022-11-23T08:20:51.602Z,11.63
2022-11-23T08:23:21.495Z,9.37
2022-11-23T08:25:50.650Z,9.90
2022-11-23T08:28:19.432Z,8.40
2022-11-23T08:30:49.266Z,8.03
2022-11-23T08:33:18.305Z,8.67
2022-11-23T08:35:47.561Z,6.33
2022-11-23T08:38:15.744Z,13.30
2022-11-23T08:40:46.565Z,10.47
2022-11-23T08:43:14.606Z,7.53
2022-11-23T08:45:44.231Z,8.90
2022-11-23T08:48:13.447Z,10.03
2022-11-23T08:50:42.281Z,7.47
2022-11-23T08:53:10.666Z,6.27
2022-11-23T08:55:39.088Z,6.30
2022-11-23T08:58:13.108Z,6.67
2022-11-23T09:00:43.127Z,6.13
2022-11-23T09:03:12.148Z,5.90
2022-11-23T09:05:41.512Z,8.80
2022-11-23T09:08:10.025Z,11.20
2022-11-23T09:10:38.685Z,8.80
2022-11-23T09:13:08.241Z,9.87
2022-11-23T09:15:37.146Z,7.60
2022-11-23T09:18:05.200Z,26.30
2022-11-23T09:20:34.931Z,10.47
2022-11-23T09:23:03.080Z,7.03
2022-11-23T09:25:32.773Z,8.43
2022-11-23T09:28:01.229Z,8.93
2022-11-23T09:30:31.524Z,9.10
2022-11-23T09:32:59.593Z,8.27
2022-11-23T09:35:28.115Z,12.03
2022-11-23T09:37:57.682Z,7.90
2022-11-23T09:40:27.260Z,11.47
2022-11-23T09:43:05.646Z,7.07
2022-11-23T09:45:42.002Z,6.80
2022-11-23T09:48:41.654Z,9.40
2022-11-23T09:51:16.288Z,17.17
2022-11-23T09:53:49.679Z,10.97
2022-11-23T09:56:22.477Z,12.47
2022-11-23T09:58:54.664Z,8.43
2022-11-23T10:01:24.675Z,12.10
2022-11-23T10:03:55.234Z,8.97
2022-11-23T10:06:26.531Z,6.80
2022-11-23T10:09:03.058Z,10.07
2022-11-23T10:11:49.588Z,8.63
2022-11-23T10:14:32.646Z,8.37
2022-11-23T10:17:08.295Z,7.43
2022-11-23T10:19:53.945Z,6.33
2022-11-23T10:22:28.516Z,7.90
2022-11-23T10:24:56.566Z,8.23
2022-11-23T10:27:26.411Z,7.50
2022-11-23T10:30:05.357Z,7.53
2022-11-23T10:32:40.115Z,6.60
2022-11-23T10:35:16.473Z,8.70
2022-11-23T10:37:45.855Z,6.90
2022-11-23T10:40:18.111Z,6.10
2022-11-23T10:42:49.966Z,6.07
2022-11-23T10:45:21.139Z,6.10
2022-11-23T10:47:56.004Z,8.20
2022-11-23T10:50:30.140Z,5.30
2022-11-23T10:53:00.604Z,6.70
2022-11-23T10:55:31.658Z,6.70
2022-11-23T10:58:00.405Z,6.97
2022-11-23T11:00:31.500Z,6.00
2022-11-23T11:03:03.364Z,7.10
2022-11-23T11:08:26.128Z,7.53
2022-11-23T11:10:59.618Z,5.17
2022-11-23T11:13:31.100Z,5.80
2022-11-23T11:16:01.816Z,5.83
2022-11-23T11:18:35.553Z,4.40
2022-11-23T11:21:07.443Z,9.27
2022-11-23T11:23:40.621Z,4.43
2022-11-23T11:26:17.351Z,5.67
2022-11-23T11:28:49.315Z,5.90
2022-11-23T11:31:27.177Z,4.60
2022-11-23T11:34:03.067Z,6.80
2022-11-23T11:36:35.635Z,4.43
2022-11-23T11:39:19.175Z,5.50
2022-11-23T11:41:52.454Z,5.70
2022-11-23T11:44:23.099Z,4.70
2022-11-23T11:46:57.918Z,8.63
2022-11-23T11:49:33.276Z,6.80
2022-11-23T11:52:07.143Z,11.30
2022-11-23T11:54:40.993Z,5.73
2022-11-23T11:57:18.029Z,5.10
2022-11-23T11:59:50.353Z,3.87
2022-11-23T12:02:25.962Z,4.10
2022-11-23T12:05:05.277Z,7.27
2022-11-23T12:07:36.583Z,5.47
2022-11-23T12:10:14.139Z,5.57
2022-11-23T12:12:42.827Z,4.77
2022-11-23T12:15:47.749Z,5.60
2022-11-23T12:18:23.808Z,5.97
2022-11-23T12:21:15.298Z,4.00
2022-11-23T12:23:49.183Z,4.30
2022-11-23T12:26:23.292Z,5.03
2022-11-23T12:29:37.620Z,6.30
2022-11-23T12:32:25.376Z,5.73
2022-11-23T12:35:19.651Z,10.00
2022-11-23T12:38:00.614Z,4.27
2022-11-23T12:40:45.666Z,6.50
2022-11-23T12:43:15.168Z,6.63
2022-11-23T12:46:03.648Z,5.33
2022-11-23T12:48:44.923Z,5.70
2022-11-23T12:51:23.309Z,7.27
2022-11-23T12:54:03.304Z,4.83
2022-11-23T12:56:52.457Z,4.83
2022-11-23T12:59:22.970Z,4.40
2022-11-23T13:01:53.884Z,8.80
2022-11-23T13:04:58.215Z,5.07
2022-11-23T13:07:49.821Z,8.20
2022-11-23T13:10:31.972Z,6.33
2022-11-23T13:13:37.822Z,6.50
2022-11-23T13:16:23.198Z,6.00
2022-11-23T13:19:04.862Z,3.63
2022-11-23T13:21:37.653Z,5.00
2022-11-23T13:24:25.676Z,6.67
2022-11-23T13:27:31.914Z,5.30
2022-11-23T13:30:11.084Z,5.03
2022-11-23T13:32:57.883Z,4.13
2022-11-23T13:36:10.421Z,4.37
2022-11-23T13:38:44.294Z,5.90
2022-11-23T13:41:50.102Z,4.87
2022-11-23T13:44:22.183Z,6.13
2022-11-23T13:47:08.102Z,4.97
2022-11-23T13:49:45.034Z,6.90
2022-11-23T13:52:30.298Z,4.87
2022-11-23T13:55:07.386Z,4.50
2022-11-23T13:57:39.149Z,4.93
2022-11-23T14:00:46.287Z,6.60
2022-11-23T14:03:51.396Z,5.63
2022-11-23T14:06:44.669Z,55.53
2022-11-23T14:09:22.262Z,22.73
2022-11-23T14:11:57.348Z,25.90
2022-11-23T14:14:30.947Z,17.23
2022-11-23T14:17:28.572Z,12.37
2022-11-23T14:20:45.251Z,8.10
2022-11-23T14:23:47.319Z,5.80
2022-11-23T14:26:23.189Z,6.80
2022-11-23T14:29:03.526Z,5.23
2022-11-23T14:31:43.917Z,12.53
2022-11-23T14:34:23.605Z,6.47
2022-11-23T14:37:02.177Z,7.33
2022-11-23T14:40:12.109Z,6.27
2022-11-23T14:42:45.416Z,5.43
2022-11-23T14:45:15.306Z,6.83
2022-11-23T14:47:44.604Z,5.73
2022-11-23T14:50:23.098Z,9.27
2022-11-23T14:52:52.912Z,8.70
2022-11-23T14:55:23.415Z,6.03
2022-11-23T14:57:55.734Z,5.60
2022-11-23T15:00:27.972Z,6.40
2022-11-23T15:02:58.486Z,5.57
2022-11-23T15:05:29.983Z,8.33
2022-11-23T15:08:00.687Z,5.60
2022-11-23T15:10:35.343Z,8.07
2022-11-23T15:13:20.004Z,13.20
2022-11-23T15:15:52.185Z,5.67
2022-11-23T15:18:32.183Z,6.27
2022-11-23T15:21:02.928Z,6.90
2022-11-23T15:23:36.484Z,7.70
2022-11-23T15:26:07.715Z,7.90
2022-11-23T15:28:38.917Z,6.83
2022-11-23T15:31:28.767Z,6.90
2022-11-23T15:33:59.867Z,6.33
2022-11-23T15:36:31.600Z,6.57
2022-11-23T15:39:02.619Z,11.63
2022-11-23T15:41:31.771Z,9.50
2022-11-23T15:44:02.920Z,6.73
2022-11-23T15:46:37.234Z,7.30
2022-11-23T15:49:06.994Z,9.97
2022-11-23T15:51:39.129Z,13.13
2022-11-23T15:54:17.078Z,10.80
2022-11-23T15:56:48.492Z,11.27
2022-11-23T15:59:30.074Z,12.43
2022-11-23T16:02:01.408Z,13.93
2022-11-23T16:04:33.880Z,10.93
2022-11-23T16:07:19.241Z,29.03
2022-11-23T16:09:52.163Z,10.30
2022-11-23T16:12:27.229Z,8.30
2022-11-23T16:14:58.461Z,12.13
2022-11-23T16:17:29.161Z,11.43
2022-11-23T16:19:58.859Z,11.43
2022-11-23T16:22:31.911Z,10.37
2022-11-23T16:25:09.239Z,9.30
2022-11-23T16:27:38.486Z,12.70
2022-11-23T16:30:28.961Z,14.30
2022-11-23T16:32:59.909Z,10.50
2022-11-23T16:35:29.211Z,12.40
2022-11-23T16:37:57.792Z,9.03
2022-11-23T16:40:28.466Z,10.27
2022-11-23T16:42:57.156Z,15.00
2022-11-23T16:45:28.867Z,13.73
2022-11-23T16:48:01.996Z,10.10
2022-11-23T16:50:36.860Z,8.43
2022-11-23T16:53:13.930Z,12.93
2022-11-23T16:55:44.058Z,11.37
2022-11-23T16:58:16.737Z,14.57
2022-11-23T17:00:49.407Z,12.40
2022-11-23T17:03:18.914Z,17.20
2022-11-23T17:05:49.034Z,10.10
2022-11-23T17:08:23.428Z,9.53
2022-11-23T17:10:53.887Z,10.23
2022-11-23T17:13:27.651Z,12.30
2022-11-23T17:15:58.392Z,11.73
2022-11-23T17:18:28.897Z,11.20
2022-11-23T17:20:59.647Z,10.87
2022-11-23T17:23:30.302Z,11.63
2022-11-23T17:26:02.088Z,10.47
2022-11-23T17:28:35.332Z,13.57
2022-11-23T17:31:07.689Z,11.50
2022-11-23T17:33:39.363Z,10.47
2022-11-23T17:36:12.197Z,11.30
2022-11-23T17:38:47.804Z,11.63
2022-11-23T17:41:18.361Z,9.10
2022-11-23T17:43:48.905Z,12.67
2022-11-23T17:46:23.177Z,15.03
2022-11-23T17:48:57.027Z,13.70
2022-11-23T17:51:30.012Z,11.70
2022-11-23T17:54:00.445Z,13.23
2022-11-23T17:56:37.678Z,11.50
2022-11-23T17:59:08.230Z,15.00
2022-11-23T18:01:43.687Z,13.20
2022-11-23T18:04:14.230Z,13.63
2022-11-23T18:06:52.964Z,16.53
2022-11-23T18:09:27.807Z,14.00
2022-11-23T18:12:05.866Z,12.60
2022-11-23T18:14:36.060Z,13.23
2022-11-23T18:17:09.351Z,10.33
2022-11-23T18:19:44.572Z,12.40
2022-11-23T18:22:15.434Z,14.00
2022-11-23T18:24:48.854Z,12.30
2022-11-23T18:27:26.108Z,11.77
2022-11-23T18:29:57.207Z,10.87
2022-11-23T18:32:31.035Z,11.50
2022-11-23T18:35:02.674Z,15.17
2022-11-23T18:37:38.843Z,14.43
2022-11-23T18:40:11.759Z,12.50
2022-11-23T18:42:42.848Z,12.50
2022-11-23T18:45:14.180Z,11.20
2022-11-23T18:47:45.491Z,14.93
2022-11-23T18:50:20.620Z,13.10
2022-11-23T18:52:52.089Z,13.80
2022-11-23T18:55:22.231Z,15.20
2022-11-23T18:57:56.261Z,11.77
2022-11-23T19:00:27.504Z,12.70
2022-11-23T19:03:00.945Z,18.30
2022-11-23T19:05:35.423Z,13.90
2022-11-23T19:08:25.679Z,14.10
2022-11-23T19:10:56.272Z,18.07
2022-11-23T19:13:27.779Z,15.13
2022-11-23T19:15:59.750Z,19.63
2022-11-23T19:18:40.335Z,21.30
2022-11-23T19:21:20.636Z,16.53
2022-11-23T19:23:56.761Z,15.60
2022-11-23T19:26:27.629Z,14.90
2022-11-23T19:28:57.725Z,14.17
2022-11-23T19:31:29.696Z,17.50
2022-11-23T19:34:02.815Z,13.50
2022-11-23T19:36:36.763Z,15.90
2022-11-23T19:39:10.776Z,14.37
2022-11-23T19:41:43.475Z,14.47
2022-11-23T19:44:14.815Z,14.37
2022-11-23T19:46:45.629Z,14.50
2022-11-23T19:49:19.031Z,14.50
2022-11-23T19:51:53.387Z,16.63
2022-11-23T19:54:26.655Z,15.83
2022-11-23T19:57:10.500Z,13.90
2022-11-23T19:59:41.511Z,16.70
2022-11-23T20:02:26.621Z,13.40
2022-11-23T20:04:58.137Z,16.17
2022-11-23T20:07:28.706Z,22.30
2022-11-23T20:09:59.281Z,16.00
2022-11-23T20:12:29.903Z,14.60
2022-11-23T20:15:06.569Z,15.40
2022-11-23T20:17:35.886Z,16.13
2022-11-23T20:20:15.048Z,15.50
2022-11-23T20:22:45.419Z,18.67
2022-11-23T20:25:15.990Z,16.30
2022-11-23T20:27:46.311Z,17.67
2022-11-23T20:30:19.074Z,14.70
2022-11-23T20:32:51.866Z,16.67
2022-11-23T20:35:24.326Z,22.70
2022-11-23T20:37:57.117Z,19.87
2022-11-23T20:40:30.942Z,16.70
2022-11-23T20:43:03.641Z,21.97
2022-11-23T20:45:34.319Z,18.37
2022-11-23T20:48:04.137Z,19.40
2022-11-23T20:50:46.638Z,22.20
2022-11-23T20:53:22.989Z,16.97
2022-11-23T20:55:55.506Z,18.93
2022-11-23T20:58:27.343Z,17.40
2022-11-23T21:00:57.982Z,16.70
2022-11-23T21:03:27.983Z,17.20
2022-11-23T21:06:04.742Z,16.93
2022-11-23T21:08:35.055Z,19.27
2022-11-23T21:11:27.819Z,19.03
2022-11-23T21:14:14.042Z,15.70
2022-11-23T21:16:49.344Z,18.00
2022-11-23T21:19:24.721Z,17.13
2022-11-23T21:22:04.443Z,21.73
2022-11-23T21:24:35.552Z,17.67
2022-11-23T21:27:08.146Z,19.50
2022-11-23T21:29:38.102Z,17.17
2022-11-23T21:32:07.695Z,18.30
2022-11-23T21:34:36.381Z,16.40
2022-11-23T21:37:15.939Z,13.77
2022-11-23T21:39:52.652Z,14.53
2022-11-23T21:42:23.705Z,14.40
2022-11-23T21:45:02.147Z,15.13
2022-11-23T21:47:32.097Z,18.03
2022-11-23T21:50:00.161Z,18.73
2022-11-23T21:52:30.911Z,13.70
2022-11-23T21:55:04.444Z,16.47
2022-11-23T21:57:35.278Z,15.23
2022-11-23T22:00:05.123Z,15.70
2022-11-23T22:02:41.259Z,18.23
2022-11-23T22:05:12.311Z,15.63
2022-11-23T22:07:55.044Z,17.37
2022-11-23T22:10:31.295Z,15.83
2022-11-23T22:12:59.330Z,17.63
2022-11-23T22:15:30.707Z,16.43
2022-11-23T22:17:58.819Z,14.63
2022-11-23T22:20:27.092Z,13.60
2022-11-23T22:22:58.679Z,18.17
2022-11-23T22:25:27.169Z,15.77
2022-11-23T22:27:55.523Z,20.17
2022-11-23T22:30:24.471Z,17.53
2022-11-23T22:32:52.585Z,16.07
2022-11-23T22:35:21.138Z,15.23
2022-11-23T22:37:49.246Z,16.70
2022-11-23T22:40:22.011Z,13.40
2022-11-23T22:42:50.311Z,14.17
2022-11-23T22:45:19.101Z,14.00
2022-11-23T22:47:47.133Z,16.93
2022-11-23T22:50:16.978Z,19.03
2022-11-23T22:52:46.615Z,13.77
2022-11-23T22:55:15.160Z,15.10
2022-11-23T22:57:49.543Z,16.07
2022-11-23T23:00:18.288Z,17.43
2022-11-23T23:02:50.370Z,16.43
2022-11-23T23:05:19.440Z,17.37
2022-11-23T23:07:48.451Z,17.07
2022-11-23T23:10:17.637Z,14.20
2022-11-23T23:12:47.584Z,16.73
2022-11-23T23:15:15.729Z,13.27
2022-11-23T23:17:43.787Z,14.00
2022-11-23T23:20:12.080Z,15.13
2022-11-23T23:22:40.601Z,16.27
2022-11-23T23:25:09.855Z,16.10
2022-11-23T23:27:37.936Z,17.23
2022-11-23T23:30:08.757Z,17.67
2022-11-23T23:32:37.041Z,14.57
2022-11-23T23:35:05.436Z,10.70
2022-11-23T23:37:33.520Z,16.70
2022-11-23T23:40:01.714Z,15.10
2022-11-23T23:42:29.762Z,16.07
2022-11-23T23:44:57.835Z,13.37
2022-11-23T23:47:27.365Z,11.80
2022-11-23T23:49:55.393Z,12.50
2022-11-23T23:52:23.457Z,12.60
2022-11-23T23:54:51.506Z,12.17
2022-11-23T23:57:19.605Z,15.63
2022-11-23T23:59:47.609Z,11.80
